Time;durP1;ratioP1;P1;durP2;ratioP2;P2;SDS_P1;SDS_P2;PMS_P1;PMS_P2;Temp;Humidity;BMP_temperature;BMP_pressure;BME280_temperature;BME280_humidity;BME280_pressure;Samples;Min_cycle;Max_cycle;Signal;HPM_P1;HPM_P2
2022/04/25 00:00:17;;;;;;;1.70;1.60;;;10.40;99.90;9.80;97217.00;;;;5117465;28;20283;-72
2022/04/25 00:02:50;;;;;;;2.40;2.30;;;10.40;99.90;9.70;97222.00;;;;5117509;28;20632;-72
2022/04/25 00:05:19;;;;;;;1.60;1.60;;;10.30;99.90;9.80;97219.00;;;;5117314;28;20277;-74
2022/04/25 00:07:45;;;;;;;3.20;3.00;;;10.40;99.90;9.80;97222.00;;;;5117285;28;20198;-72
2022/04/25 00:10:14;;;;;;;2.40;1.77;;;10.40;99.90;9.70;97221.00;;;;5117137;28;20205;-72
2022/04/25 00:12:41;;;;;;;6.13;2.37;;;10.30;99.90;9.60;97225.00;;;;5117271;28;20206;-72
2022/04/25 00:15:11;;;;;;;1.90;1.70;;;10.30;99.90;9.70;97227.00;;;;5117103;28;20636;-72
2022/04/25 00:17:37;;;;;;;1.27;1.27;;;10.30;99.90;9.60;97224.00;;;;5116974;28;20237;-71
2022/04/25 00:20:08;;;;;;;3.30;2.30;;;10.30;99.90;9.60;97231.00;;;;5099198;28;20652;-72
2022/04/25 00:22:35;;;;;;;2.37;2.10;;;10.30;99.90;9.70;97235.00;;;;5117332;28;20517;-72
2022/04/25 00:25:02;;;;;;;2.60;2.40;;;10.20;99.90;9.60;97225.00;;;;5099219;28;20221;-73
2022/04/25 00:27:29;;;;;;;2.60;2.40;;;10.20;99.90;9.60;97224.00;;;;5099108;28;20255;-72
2022/04/25 00:29:56;;;;;;;5.97;2.47;;;10.20;99.90;9.50;97237.00;;;;5117091;28;20222;-73
2022/04/25 00:32:25;;;;;;;3.03;2.80;;;10.10;99.90;9.50;97228.00;;;;5116847;28;20213;-72
2022/04/25 00:34:54;;;;;;;2.67;2.47;;;10.10;99.90;9.40;97231.00;;;;5116819;28;20629;-72
2022/04/25 00:37:21;;;;;;;2.07;1.97;;;10.00;99.90;9.30;97224.00;;;;5116814;28;20194;-73
2022/04/25 00:39:48;;;;;;;1.30;1.30;;;10.00;99.90;9.30;97227.00;;;;5098678;28;20325;-72
2022/04/25 00:42:14;;;;;;;2.57;2.27;;;10.00;99.90;9.10;97234.00;;;;5098801;28;20201;-72
2022/04/25 00:44:42;;;;;;;1.80;1.70;;;9.90;99.90;9.00;97229.00;;;;5117021;28;20228;-73
2022/04/25 00:47:09;;;;;;;1.57;1.47;;;9.70;99.90;8.90;97212.00;;;;5116847;28;20201;-73
2022/04/25 00:49:36;;;;;;;2.97;2.77;;;9.70;99.90;9.00;97239.00;;;;5116592;28;20549;-72
2022/04/25 00:52:04;;;;;;;2.93;2.37;;;9.60;99.90;8.80;97230.00;;;;5116654;28;20276;-72
2022/04/25 00:54:32;;;;;;;2.40;2.13;;;9.60;99.90;8.90;97239.00;;;;5098591;28;20193;-72
2022/04/25 00:56:58;;;;;;;2.83;1.87;;;9.50;99.90;8.80;97232.00;;;;5098554;28;20539;-72
2022/04/25 00:59:26;;;;;;;2.00;1.90;;;9.50;99.90;8.80;97240.00;;;;5116146;28;20190;-72
2022/04/25 01:01:52;;;;;;;2.43;2.23;;;9.50;99.90;8.70;97238.00;;;;5116050;28;20249;-72
2022/04/25 01:04:20;;;;;;;1.40;1.37;;;9.50;99.90;8.70;97241.00;;;;5116531;28;20337;-72
2022/04/25 01:06:48;;;;;;;1.77;1.67;;;9.40;99.90;8.70;97243.00;;;;5116197;28;20262;-72
2022/04/25 01:09:15;;;;;;;2.23;2.13;;;9.40;99.90;8.70;97239.00;;;;5116446;28;20267;-72
2022/04/25 01:11:45;;;;;;;2.27;2.17;;;9.40;99.90;8.70;97238.00;;;;5116677;28;20273;-72
2022/04/25 01:14:15;;;;;;;2.70;2.33;;;9.40;99.90;8.60;97236.00;;;;5116357;28;20198;-72
2022/04/25 01:16:42;;;;;;;1.63;1.53;;;9.40;99.90;8.60;97242.00;;;;5098241;28;20225;-72
2022/04/25 01:19:09;;;;;;;2.87;2.57;;;9.30;99.90;8.50;97242.00;;;;5116103;28;20237;-72
2022/04/25 01:21:42;;;;;;;4.07;2.43;;;9.30;99.90;8.60;97232.00;;;;5116165;28;20222;-71
2022/04/25 01:29:41;;;;;;;2.03;1.93;;;9.30;99.90;8.70;97254.00;;;;5115994;28;20249;-72
2022/04/25 01:32:09;;;;;;;2.00;1.60;;;9.30;99.90;8.50;97255.00;;;;5115918;28;20234;-72
2022/04/25 01:34:37;;;;;;;2.97;2.77;;;9.20;99.90;8.50;97245.00;;;;5097872;28;20206;-72
2022/04/25 01:37:07;;;;;;;1.90;1.80;;;9.20;99.90;8.70;97253.00;;;;5115935;28;20363;-72
2022/04/25 01:39:35;;;;;;;2.97;2.77;;;9.30;99.90;8.50;97247.00;;;;5115790;28;20204;-72
2022/04/25 01:42:03;;;;;;;2.03;1.93;;;9.30;99.90;8.60;97253.00;;;;5115797;28;20240;-72
2022/04/25 01:44:30;;;;;;;2.03;1.93;;;9.30;99.90;8.50;97249.00;;;;5115705;28;20331;-72
2022/04/25 01:46:57;;;;;;;8.50;2.57;;;9.20;99.90;8.50;97247.00;;;;5097876;28;20234;-72
2022/04/25 01:49:24;;;;;;;1.43;1.43;;;9.20;99.90;8.40;97254.00;;;;5115657;28;20213;-71
2022/04/25 01:51:51;;;;;;;2.77;2.57;;;9.20;99.90;8.50;97249.00;;;;5097770;28;20267;-72
2022/04/25 01:54:26;;;;;;;2.50;2.30;;;9.20;99.90;8.40;97252.00;;;;5115635;28;20273;-72
2022/04/25 01:56:54;;;;;;;2.33;2.13;;;9.20;99.90;8.60;97258.00;;;;5115573;28;20498;-72
2022/04/25 01:59:22;;;;;;;3.03;2.77;;;9.20;99.90;8.60;97254.00;;;;5115469;28;20201;-72
2022/04/25 02:01:48;;;;;;;1.97;1.87;;;9.30;99.90;8.60;97257.00;;;;5115519;28;20286;-72
2022/04/25 02:04:18;;;;;;;2.43;2.33;;;9.40;99.90;8.80;97258.00;;;;5115322;28;20221;-72
2022/04/25 02:06:47;;;;;;;2.03;1.93;;;9.40;99.90;8.80;97260.00;;;;5115373;28;20525;-72
2022/04/25 02:09:13;;;;;;;3.87;2.37;;;9.40;99.90;8.80;97254.00;;;;5115163;28;20587;-72
2022/04/25 02:11:42;;;;;;;2.40;2.20;;;9.40;99.90;8.80;97266.00;;;;5114201;28;20511;-72
2022/04/25 02:14:09;;;;;;;2.07;1.97;;;9.50;99.90;8.90;97261.00;;;;5097256;28;20660;-72
2022/04/25 02:16:36;;;;;;;1.60;1.50;;;9.50;99.90;8.80;97258.00;;;;5115244;28;20222;-72
2022/04/25 02:19:03;;;;;;;1.93;1.83;;;9.50;99.90;8.70;97269.00;;;;5097254;28;20201;-73
2022/04/25 02:21:31;;;;;;;3.90;2.37;;;9.50;99.90;8.90;97271.00;;;;5115195;28;20209;-72
2022/04/25 02:23:58;;;;;;;2.33;1.90;;;9.50;99.90;8.80;97267.00;;;;5117365;28;20202;-71
2022/04/25 02:26:25;;;;;;;3.10;2.90;;;9.50;99.90;9.00;97273.00;;;;5118713;28;20297;-71
2022/04/25 02:28:54;;;;;;;2.63;2.23;;;9.60;99.90;8.90;97279.00;;;;5116105;28;20213;-72
2022/04/25 02:31:22;;;;;;;2.53;2.27;;;9.60;99.90;9.00;97276.00;;;;5115021;28;20233;-72
2022/04/25 02:33:50;;;;;;;2.03;1.93;;;9.60;99.90;9.00;97281.00;;;;5115025;28;20217;-72
2022/04/25 02:36:17;;;;;;;2.60;2.40;;;9.60;99.90;9.00;97279.00;;;;5114935;28;20630;-71
2022/04/25 02:38:44;;;;;;;1.20;1.20;;;9.60;99.90;8.80;97270.00;;;;5114915;28;20198;-71
2022/04/25 02:41:13;;;;;;;3.67;2.40;;;9.60;99.90;8.80;97276.00;;;;5114831;28;20194;-72
2022/04/25 02:43:43;;;;;;;1.93;1.83;;;9.50;99.90;9.00;97275.00;;;;5114763;28;20705;-72
2022/04/25 02:46:14;;;;;;;1.87;1.77;;;9.60;99.90;8.90;97271.00;;;;5114821;28;20543;-72
2022/04/25 02:48:44;;;;;;;1.80;1.70;;;9.60;99.90;9.00;97278.00;;;;5114581;28;20230;-72
2022/04/25 02:51:13;;;;;;;1.50;1.50;;;9.60;99.90;9.00;97284.00;;;;5114792;28;20221;-72
2022/04/25 02:53:43;;;;;;;2.37;2.27;;;9.60;99.90;9.00;97278.00;;;;5114554;28;20733;-72
2022/04/25 02:56:10;;;;;;;2.23;2.00;;;9.60;99.90;9.00;97284.00;;;;5114583;28;20610;-72
2022/04/25 02:58:40;;;;;;;1.70;1.70;;;9.60;99.90;9.10;97277.00;;;;5096870;28;20600;-73
2022/04/25 03:01:09;;;;;;;2.43;2.30;;;9.70;99.90;9.00;97285.00;;;;5114524;28;20194;-72
2022/04/25 03:03:37;;;;;;;3.70;2.50;;;9.70;99.90;9.00;97289.00;;;;5096675;28;20274;-72
2022/04/25 03:06:10;;;;;;;5.40;2.30;;;9.60;99.90;8.90;97284.00;;;;5114230;28;20221;-72
2022/04/25 03:08:40;;;;;;;3.10;2.67;;;9.60;99.90;8.80;97285.00;;;;5114416;28;20221;-72
2022/04/25 03:11:09;;;;;;;4.13;2.67;;;9.50;99.90;8.60;97281.00;;;;5096380;28;20320;-71
2022/04/25 03:13:38;;;;;;;2.43;2.33;;;9.40;99.90;8.70;97295.00;;;;5114285;28;20637;-71
2022/04/25 03:16:06;;;;;;;3.00;2.73;;;9.40;99.90;8.80;97291.00;;;;5114185;28;20697;-72
2022/04/25 03:18:33;;;;;;;2.90;2.60;;;9.40;99.90;8.70;97294.00;;;;5114387;28;20209;-71
2022/04/25 03:21:03;;;;;;;3.43;3.13;;;9.40;99.90;8.70;97303.00;;;;5114232;28;20262;-72
2022/04/25 03:23:30;;;;;;;2.20;2.10;;;9.40;99.90;8.60;97295.00;;;;5113811;28;20588;-72
2022/04/25 03:25:59;;;;;;;3.90;2.73;;;9.30;99.90;8.60;97299.00;;;;5114212;28;20202;-72
2022/04/25 03:28:25;;;;;;;2.87;2.63;;;9.40;99.90;8.70;97312.00;;;;5114055;28;20240;-72
2022/04/25 03:30:54;;;;;;;3.43;2.80;;;9.30;99.90;8.60;97305.00;;;;5114076;28;20206;-72
2022/04/25 03:33:20;;;;;;;2.93;2.73;;;9.30;99.90;8.60;97312.00;;;;5114004;28;20308;-72
2022/04/25 03:35:47;;;;;;;3.90;3.57;;;9.30;99.90;8.50;97319.00;;;;5114070;28;20226;-72
2022/04/25 03:38:17;;;;;;;2.60;2.40;;;9.30;99.90;8.50;97318.00;;;;5114039;28;20190;-71
2022/04/25 03:40:45;;;;;;;2.57;2.47;;;9.30;99.90;8.60;97326.00;;;;5096202;28;20201;-72
2022/04/25 03:43:17;;;;;;;2.00;1.90;;;9.30;99.90;8.60;97324.00;;;;5113947;28;20214;-72
2022/04/25 03:45:44;;;;;;;3.53;3.23;;;9.20;99.90;8.40;97318.00;;;;5113967;28;20237;-72
2022/04/25 03:48:10;;;;;;;2.87;2.73;;;9.20;99.90;8.30;97318.00;;;;5113762;28;20294;-72
2022/04/25 03:50:37;;;;;;;4.53;2.63;;;9.10;99.90;8.40;97289.00;;;;5123806;28;20252;-71
2022/04/25 03:53:08;;;;;;;6.03;3.60;;;9.10;99.90;8.40;97317.00;;;;5122508;28;20571;-72
2022/04/25 03:58:21;;;;;;;3.10;2.90;;;9.00;99.90;8.20;97319.00;;;;5118104;28;20206;-72
2022/04/25 04:00:48;;;;;;;2.17;2.07;;;9.00;99.90;8.30;97327.00;;;;5117994;28;20226;-72
2022/04/25 04:03:18;;;;;;;2.90;2.73;;;9.00;99.90;8.20;97334.00;;;;5117694;28;20228;-72
2022/04/25 04:05:45;;;;;;;3.63;3.33;;;9.00;99.90;8.00;97331.00;;;;5117684;28;20224;-71
2022/04/25 04:08:12;;;;;;;3.43;3.23;;;8.80;99.90;8.00;97330.00;;;;5114270;28;20521;-72
2022/04/25 04:10:38;;;;;;;2.57;2.37;;;8.90;99.90;8.00;97333.00;;;;5113924;28;20198;-72
2022/04/25 04:13:05;;;;;;;4.13;2.77;;;8.80;99.90;8.20;97336.00;;;;5113687;28;20652;-72
2022/04/25 04:15:33;;;;;;;3.40;2.53;;;8.90;99.90;8.10;97341.00;;;;5113692;28;20266;-72
2022/04/25 04:17:59;;;;;;;2.43;2.23;;;8.80;99.90;8.00;97337.00;;;;5113658;28;20228;-72
2022/04/25 04:20:30;;;;;;;3.00;2.73;;;8.80;99.90;8.00;97340.00;;;;5114623;28;20194;-72
2022/04/25 04:22:58;;;;;;;3.57;2.17;;;8.70;99.90;8.00;97344.00;;;;5113759;28;20193;-72
2022/04/25 04:25:28;;;;;;;2.23;2.13;;;8.80;99.90;8.10;97354.00;;;;5113542;28;20251;-72
2022/04/25 04:27:54;;;;;;;6.50;4.20;;;8.80;99.90;8.20;97349.00;;;;5113435;28;20198;-72
2022/04/25 04:30:24;;;;;;;2.53;2.43;;;8.90;99.90;8.00;97359.00;;;;5115865;28;20236;-72
2022/04/25 04:32:53;;;;;;;2.60;2.43;;;8.90;99.90;8.10;97362.00;;;;5113352;28;20630;-72
2022/04/25 04:38:07;;;;;;;3.67;3.47;;;8.90;99.90;8.20;97368.00;;;;5116930;28;20190;-72
2022/04/25 04:40:35;;;;;;;1.77;1.67;;;8.90;99.90;8.30;97366.00;;;;5116885;28;20249;-72
2022/04/25 04:43:04;;;;;;;2.27;2.17;;;9.00;99.90;8.30;97370.00;;;;5116893;28;20629;-71
2022/04/25 04:45:31;;;;;;;2.13;2.03;;;9.00;99.90;8.30;97374.00;;;;5116642;28;20348;-71
2022/04/25 04:47:59;;;;;;;4.07;3.77;;;9.00;99.90;8.20;97377.00;;;;5116786;28;20276;-71
2022/04/25 04:50:25;;;;;;;2.13;2.03;;;9.00;99.90;8.40;97381.00;;;;5098627;28;20217;-71
2022/04/25 04:52:56;;;;;;;2.87;2.67;;;9.10;99.90;8.50;97376.00;;;;5116495;28;20575;-72
2022/04/25 04:55:24;;;;;;;1.93;1.83;;;9.10;99.90;8.50;97387.00;;;;5116535;28;20281;-71
2022/04/25 04:57:51;;;;;;;2.60;2.40;;;9.20;99.90;8.70;97383.00;;;;5116386;28;20278;-71
2022/04/25 05:00:18;;;;;;;3.77;3.47;;;9.30;99.90;8.70;97389.00;;;;5116520;28;20271;-72
2022/04/25 05:02:45;;;;;;;1.77;1.67;;;9.30;99.90;8.90;97395.00;;;;5116273;28;20286;-71
2022/04/25 05:05:13;;;;;;;3.43;3.13;;;9.50;99.90;8.70;97397.00;;;;5116437;28;20514;-71
2022/04/25 05:07:40;;;;;;;2.33;2.23;;;9.50;99.90;8.70;97397.00;;;;5116338;28;20198;-71
2022/04/25 05:10:09;;;;;;;3.47;2.70;;;9.40;99.90;8.80;97381.00;;;;5116280;28;20328;-71
2022/04/25 05:12:47;;;;;;;3.07;2.87;;;9.40;99.90;8.90;97394.00;;;;5116321;28;20540;-71
2022/04/25 05:15:18;;;;;;;3.20;2.93;;;9.50;99.90;8.80;97400.00;;;;5116218;28;20221;-71
2022/04/25 05:17:48;;;;;;;2.07;1.97;;;9.50;99.90;8.80;97387.00;;;;5116241;28;20204;-72
2022/04/25 05:20:17;;;;;;;3.47;3.17;;;9.50;99.90;8.90;97410.00;;;;5098077;28;20297;-71
2022/04/25 05:22:47;;;;;;;2.40;2.20;;;9.50;99.90;9.00;97410.00;;;;5116126;28;20645;-71
2022/04/25 05:25:15;;;;;;;2.33;2.23;;;9.60;99.90;9.00;97412.00;;;;5098082;28;20312;-71
2022/04/25 05:27:45;;;;;;;2.63;2.50;;;9.70;99.90;9.10;97412.00;;;;5116077;28;20214;-71
2022/04/25 05:30:14;;;;;;;2.97;2.77;;;9.70;99.90;9.10;97415.00;;;;5115795;28;20210;-71
2022/04/25 05:32:44;;;;;;;3.87;3.57;;;9.70;99.90;9.20;97419.00;;;;5115925;28;20201;-72
2022/04/25 05:35:11;;;;;;;2.97;2.77;;;9.80;99.90;9.30;97421.00;;;;5115896;28;20633;-72
2022/04/25 05:37:39;;;;;;;3.57;3.27;;;9.90;99.90;9.30;97429.00;;;;5115816;28;20305;-71
2022/04/25 05:40:08;;;;;;;3.30;3.10;;;10.00;99.90;9.40;97417.00;;;;5097810;28;20210;-72
2022/04/25 05:42:35;;;;;;;2.30;2.20;;;10.00;99.90;9.50;97418.00;;;;5115864;28;20286;-72
2022/04/25 05:45:04;;;;;;;3.00;2.77;;;10.10;99.90;9.70;97425.00;;;;5115769;28;20704;-71
2022/04/25 05:47:32;;;;;;;2.50;2.33;;;10.20;99.90;9.70;97425.00;;;;5115556;28;20218;-71
2022/04/25 05:52:44;;;;;;;2.07;1.97;;;10.30;99.90;9.70;97432.00;;;;5115527;28;20186;-71
2022/04/25 05:55:11;;;;;;;1.90;1.80;;;10.30;99.80;9.80;97422.00;;;;5115838;28;20281;-72
2022/04/25 05:57:40;;;;;;;3.23;2.90;;;10.40;99.70;9.90;97427.00;;;;5115476;28;20251;-72
2022/04/25 06:00:09;;;;;;;13.07;2.73;;;10.50;99.80;10.00;97425.00;;;;5115376;28;20242;-72
2022/04/25 06:02:37;;;;;;;2.83;2.63;;;10.50;99.70;10.00;97426.00;;;;5115476;28;20213;-72
2022/04/25 06:05:05;;;;;;;2.53;2.33;;;10.50;99.10;10.10;97431.00;;;;5115324;28;20228;-72
2022/04/25 06:07:31;;;;;;;5.60;3.30;;;10.60;98.80;10.00;97436.00;;;;5097526;28;20538;-71
2022/04/25 06:09:58;;;;;;;3.83;3.00;;;10.60;98.40;9.90;97439.00;;;;5115170;28;20230;-71
2022/04/25 06:12:25;;;;;;;1.93;1.83;;;10.60;98.50;9.70;97434.00;;;;5115330;28;20248;-76
2022/04/25 06:14:53;;;;;;;4.50;2.43;;;10.40;98.80;9.90;97436.00;;;;5115285;28;20194;-75
2022/04/25 06:17:20;;;;;;;2.57;2.47;;;10.50;99.10;10.10;97419.00;;;;5097207;28;20236;-78
2022/04/25 06:19:49;;;;;;;1.87;1.77;;;10.60;97.80;10.10;97427.00;;;;5115150;28;20191;-76
2022/04/25 06:22:19;;;;;;;2.97;2.77;;;10.70;96.70;10.30;97436.00;;;;5115072;28;20316;-76
2022/04/25 06:24:46;;;;;;;2.80;2.13;;;10.80;95.80;10.20;97444.00;;;;5115186;28;20233;-72
2022/04/25 06:27:13;;;;;;;5.00;3.30;;;10.80;96.90;10.10;97440.00;;;;5115166;28;20190;-71
2022/04/25 06:29:42;;;;;;;1.63;1.57;;;10.80;96.60;10.40;97448.00;;;;5114945;28;20229;-72
2022/04/25 06:32:09;;;;;;;1.77;1.67;;;11.00;95.90;10.60;97451.00;;;;5114928;28;20617;-71
2022/04/25 06:34:35;;;;;;;3.03;2.07;;;11.10;95.80;10.80;97453.00;;;;5115036;28;20262;-71
2022/04/25 06:37:02;;;;;;;3.17;2.97;;;11.30;95.90;10.90;97450.00;;;;5096854;28;20222;-70
2022/04/25 06:39:29;;;;;;;2.43;2.23;;;11.30;95.70;11.00;97446.00;;;;5114886;28;20218;-71
2022/04/25 06:41:58;;;;;;;2.47;2.33;;;11.50;95.90;11.20;97445.00;;;;5114770;28;20607;-72
2022/04/25 06:44:25;;;;;;;3.13;2.90;;;11.60;95.50;11.30;97446.00;;;;5114775;28;20314;-71
2022/04/25 06:46:51;;;;;;;2.20;2.10;;;11.70;95.10;11.30;97446.00;;;;5114862;28;20190;-70
2022/04/25 06:49:21;;;;;;;2.80;2.60;;;11.80;93.40;11.40;97453.00;;;;5114798;28;20225;-72
2022/04/25 06:51:47;;;;;;;3.50;3.30;;;11.90;93.00;11.50;97452.00;;;;5097012;28;20778;-71
2022/04/25 06:54:14;;;;;;;3.07;2.60;;;12.00;94.00;11.50;97445.00;;;;5096555;28;20213;-70
2022/04/25 06:56:41;;;;;;;2.93;2.73;;;12.00;92.20;11.50;97458.00;;;;5113559;28;20288;-70
2022/04/25 06:59:10;;;;;;;1.90;1.80;;;12.00;91.50;11.60;97453.00;;;;5113872;28;20229;-72
2022/04/25 07:01:39;;;;;;;2.07;1.97;;;12.00;91.90;11.70;97452.00;;;;5114501;28;20233;-71
2022/04/25 07:04:06;;;;;;;3.23;2.43;;;12.10;91.70;11.70;97448.00;;;;5114388;28;20789;-72
2022/04/25 07:06:33;;;;;;;4.77;2.83;;;12.10;89.80;11.40;97452.00;;;;5114460;28;20194;-71
2022/04/25 07:09:00;;;;;;;2.80;2.67;;;12.00;89.60;11.50;97455.00;;;;5114253;28;20522;-72
2022/04/25 07:11:26;;;;;;;3.13;2.93;;;12.00;90.20;11.80;97451.00;;;;5096390;28;20665;-71
2022/04/25 07:13:55;;;;;;;3.07;2.87;;;12.20;90.70;12.00;97463.00;;;;5114388;28;20224;-72
2022/04/25 07:16:25;;;;;;;2.37;2.17;;;12.40;89.70;12.10;97458.00;;;;5114304;28;20194;-73
2022/04/25 07:18:55;;;;;;;2.70;2.53;;;12.50;89.30;12.20;97464.00;;;;5114277;28;20267;-73
2022/04/25 07:29:35;;;;;;;1.83;1.73;;;12.80;85.90;12.50;97457.00;;;;5114145;28;20202;-72
2022/04/25 07:32:02;;;;;;;2.77;2.67;;;12.90;86.70;12.50;97459.00;;;;5114138;28;20205;-72
2022/04/25 07:34:30;;;;;;;1.43;1.33;;;13.00;83.80;12.80;97457.00;;;;5096056;28;20274;-72
2022/04/25 07:36:56;;;;;;;2.73;2.20;;;13.20;85.10;13.10;97457.00;;;;5113945;28;20277;-72
2022/04/25 07:39:23;;;;;;;2.67;2.47;;;13.40;85.50;13.50;97465.00;;;;5114067;28;20251;-71
2022/04/25 07:41:50;;;;;;;2.37;2.23;;;13.70;85.60;13.40;97468.00;;;;5114054;28;20246;-72
2022/04/25 07:44:19;;;;;;;1.63;1.53;;;13.80;83.00;13.10;97471.00;;;;5114049;28;20255;-72
2022/04/25 07:46:46;;;;;;;1.87;1.77;;;13.60;83.20;13.10;97467.00;;;;5113896;28;20518;-72
2022/04/25 07:49:15;;;;;;;2.27;2.07;;;13.60;81.90;13.20;97476.00;;;;5095845;28;20225;-72
2022/04/25 07:51:42;;;;;;;4.53;2.63;;;13.60;82.10;13.00;97474.00;;;;5113871;28;20267;-72
2022/04/25 07:54:10;;;;;;;2.57;2.37;;;13.50;81.40;13.00;97472.00;;;;5113703;28;20217;-73
2022/04/25 07:56:37;;;;;;;1.53;1.43;;;13.50;82.30;13.10;97479.00;;;;5113819;28;20198;-71
2022/04/25 07:59:05;;;;;;;1.97;1.83;;;13.60;82.30;13.00;97479.00;;;;5113924;28;20710;-72
2022/04/25 08:01:33;;;;;;;3.10;2.80;;;13.50;81.70;13.00;97479.00;;;;5114592;28;20213;-72
2022/04/25 08:04:03;;;;;;;2.87;2.67;;;13.40;81.70;13.00;97484.00;;;;5113736;28;20198;-72
2022/04/25 08:06:29;;;;;;;3.60;1.97;;;13.50;81.20;13.10;97487.00;;;;5113659;28;20260;-72
2022/04/25 08:08:57;;;;;;;3.07;2.87;;;13.50;82.00;12.90;97478.00;;;;5113641;28;20221;-72
2022/04/25 08:11:26;;;;;;;2.33;2.23;;;13.40;80.80;12.90;97482.00;;;;5098281;28;20201;-71
2022/04/25 08:19:31;;;;;;;1.20;1.20;;;13.20;77.20;12.60;97488.00;;;;5080668;28;20209;-71
2022/04/25 08:22:00;;;;;;;6.23;2.57;;;13.20;77.50;12.70;97488.00;;;;5099103;28;20288;-71
2022/04/25 08:24:28;;;;;;;1.70;1.60;;;13.10;78.20;12.80;97491.00;;;;5116934;28;20205;-71
2022/04/25 08:26:55;;;;;;;1.30;1.30;;;13.30;78.80;12.90;97496.00;;;;5117183;28;20242;-71
2022/04/25 08:29:23;;;;;;;1.83;1.73;;;13.30;78.70;12.90;97492.00;;;;5116845;28;20218;-71
2022/04/25 08:31:49;;;;;;;1.50;1.50;;;13.40;78.20;12.90;97498.00;;;;5116890;28;20206;-72
2022/04/25 08:34:16;;;;;;;1.60;1.50;;;13.40;79.30;13.30;97501.00;;;;5116847;28;20235;-71
2022/04/25 08:36:43;;;;;;;2.40;2.23;;;13.60;78.50;13.40;97492.00;;;;5099348;28;20237;-72
2022/04/25 08:39:10;;;;;;;2.00;1.83;;;13.80;77.80;13.40;97499.00;;;;5117414;28;20683;-71
2022/04/25 08:41:45;;;;;;;2.67;2.47;;;13.80;78.40;13.40;97505.00;;;;5117028;28;20212;-71
2022/04/25 08:44:18;;;;;;;1.63;1.53;;;13.80;77.90;13.50;97512.00;;;;5116820;28;20296;-71
2022/04/25 08:46:49;;;;;;;1.50;1.40;;;13.90;78.40;13.60;97516.00;;;;5116735;28;20194;-72
2022/04/25 08:49:19;;;;;;;2.43;2.27;;;14.00;78.80;13.60;97515.00;;;;5116617;28;20221;-70
2022/04/25 08:51:47;;;;;;;2.80;1.93;;;14.00;77.40;13.70;97519.00;;;;5116516;28;20304;-71
2022/04/25 08:54:14;;;;;;;1.43;1.37;;;14.10;77.60;14.00;97525.00;;;;5116572;28;20198;-72
2022/04/25 08:56:42;;;;;;;2.37;2.23;;;14.30;78.10;13.90;97529.00;;;;5116540;28;20194;-72
2022/04/25 08:59:12;;;;;;;2.53;2.33;;;14.30;75.60;14.10;97536.00;;;;5098631;28;20198;-70
2022/04/25 09:01:42;;;;;;;3.07;2.73;;;14.40;73.90;13.90;97526.00;;;;5116508;28;20186;-70
2022/04/25 09:04:10;;;;;;;1.60;1.50;;;14.40;72.70;13.60;97522.00;;;;5116277;28;20300;-71
2022/04/25 09:06:41;;;;;;;1.43;1.33;;;14.20;72.90;13.80;97516.00;;;;5116632;28;20714;-71
2022/04/25 09:09:07;;;;;;;1.40;1.40;;;14.20;73.00;14.20;97500.00;;;;5116289;28;20257;-73
2022/04/25 09:14:22;;;;;;;2.03;1.93;;;14.60;70.30;14.00;97527.00;;;;5115331;28;20213;-72
2022/04/25 09:16:48;;;;;;;1.70;1.60;;;14.50;68.20;14.40;97530.00;;;;5116243;28;20300;-71
2022/04/25 09:19:15;;;;;;;2.23;2.03;;;14.80;69.00;14.90;97539.00;;;;5116094;28;20200;-72
2022/04/25 09:21:46;;;;;;;2.53;2.40;;;15.10;67.40;14.70;97538.00;;;;5115588;28;20198;-71
2022/04/25 09:24:23;;;;;;;2.37;1.87;;;15.20;62.40;14.60;97538.00;;;;5115996;28;20696;-71
2022/04/25 09:26:54;;;;;;;1.43;1.40;;;15.10;57.40;14.70;97544.00;;;;5116144;28;20185;-72
2022/04/25 09:29:29;;;;;;;1.83;1.73;;;15.20;58.50;15.10;97540.00;;;;5097996;28;20217;-73
2022/04/25 09:31:56;;;;;;;1.83;1.73;;;15.40;59.10;15.40;97544.00;;;;5116075;28;20280;-73
2022/04/25 09:37:11;;;;;;;2.10;2.00;;;15.80;55.80;15.50;97546.00;;;;5115897;28;20237;-72
2022/04/25 09:39:37;;;;;;;1.90;1.80;;;15.90;55.80;15.60;97544.00;;;;5116118;28;20228;-71
2022/04/25 09:42:05;;;;;;;2.43;2.33;;;16.00;55.60;15.50;97545.00;;;;5098098;28;20209;-71
2022/04/25 09:44:55;;;;;;;4.97;1.50;;;16.00;54.40;15.20;97543.00;;;;5118875;28;20229;-72
2022/04/25 09:47:27;;;;;;;2.17;1.97;;;15.70;51.40;14.90;97541.00;;;;5116678;28;20209;-72
2022/04/25 09:50:07;;;;;;;2.43;1.77;;;15.50;53.10;15.30;97536.00;;;;5116404;28;20234;-73
2022/04/25 09:52:36;;;;;;;1.70;1.60;;;15.70;53.00;15.20;97543.00;;;;5116107;28;20612;-71
2022/04/25 09:55:14;;;;;;;1.93;1.80;;;15.70;52.90;15.30;97544.00;;;;5115863;28;20225;-72
2022/04/25 09:57:42;;;;;;;1.73;1.63;;;15.70;54.90;15.60;97536.00;;;;5116060;28;20225;-73
2022/04/25 10:00:11;;;;;;;3.13;2.93;;;15.90;54.50;15.90;97533.00;;;;5097611;28;20568;-73
2022/04/25 10:02:39;;;;;;;1.63;1.53;;;16.20;55.00;16.20;97536.00;;;;5097716;28;20580;-72
2022/04/25 10:05:15;;;;;;;1.70;1.60;;;16.40;50.90;15.80;97547.00;;;;5097733;28;20238;-73
2022/04/25 10:07:43;;;;;;;2.10;1.97;;;16.30;49.00;15.90;97534.00;;;;5097556;28;20198;-73
2022/04/25 10:10:10;;;;;;;1.63;1.53;;;16.40;49.50;15.60;97537.00;;;;5097463;28;20328;-73
2022/04/25 10:12:37;;;;;;;1.50;1.47;;;16.10;49.20;16.00;97540.00;;;;5115622;28;20578;-72
2022/04/25 10:15:05;;;;;;;3.40;2.27;;;16.30;50.10;16.00;97539.00;;;;5115312;28;20221;-71
2022/04/25 10:17:35;;;;;;;1.83;1.73;;;16.40;48.90;16.00;97539.00;;;;5115273;28;20208;-73
2022/04/25 10:20:03;;;;;;;2.10;2.00;;;16.40;48.70;16.40;97538.00;;;;5097284;28;20608;-73
2022/04/25 10:22:34;;;;;;;1.50;1.50;;;16.60;49.50;16.50;97538.00;;;;5115033;28;20221;-74
2022/04/25 10:25:01;;;;;;;1.50;1.33;;;16.70;49.40;16.30;97545.00;;;;5115131;28;20202;-74
2022/04/25 10:27:33;;;;;;;2.03;1.93;;;16.70;48.80;16.40;97557.00;;;;5115329;28;20217;-74
2022/04/25 10:30:09;;;;;;;2.00;1.90;;;16.70;49.70;16.20;97550.00;;;;5115020;28;20218;-74
2022/04/25 10:32:37;;;;;;;2.20;2.10;;;16.70;50.50;15.90;97549.00;;;;5114223;28;20283;-74
2022/04/25 10:35:09;;;;;;;2.00;1.90;;;16.50;48.60;15.90;97533.00;;;;5114904;28;20233;-73
2022/04/25 10:37:40;;;;;;;2.30;2.20;;;16.40;49.00;15.80;97552.00;;;;5115024;28;20683;-74
2022/04/25 10:40:09;;;;;;;2.07;1.87;;;16.30;49.60;15.90;97551.00;;;;5114983;28;20225;-74
2022/04/25 10:45:54;;;;;;;2.67;2.50;;;16.30;50.20;15.80;97560.00;;;;5039460;28;20650;-74
2022/04/25 10:48:21;;;;;;;1.33;1.33;;;16.20;51.10;15.90;97554.00;;;;5115014;28;20250;-75
2022/04/25 10:51:11;;;;;;;1.73;1.63;;;16.30;50.50;15.90;97557.00;;;;5114883;28;20228;-75
2022/04/25 10:53:57;;;;;;;1.67;1.57;;;16.30;51.30;15.60;97556.00;;;;5114730;28;20718;-73
2022/04/25 10:56:26;;;;;;;2.13;2.03;;;16.10;50.80;15.70;97566.00;;;;5114734;28;20198;-74
2022/04/25 10:59:31;;;;;;;1.70;1.60;;;16.20;50.20;15.70;97564.00;;;;5113758;28;20271;-74
2022/04/25 11:01:58;;;;;;;2.13;2.03;;;16.20;49.80;15.70;97567.00;;;;5076604;28;20222;-74
2022/04/25 11:04:27;;;;;;;1.57;1.47;;;16.20;51.50;15.80;97579.00;;;;5114601;28;20228;-74
2022/04/25 11:07:24;;;;;;;1.27;1.27;;;16.20;51.70;15.70;97580.00;;;;5114429;28;20276;-73
2022/04/25 11:09:51;;;;;;;2.20;2.10;;;16.10;51.90;15.70;97580.00;;;;5114670;28;20322;-75
2022/04/25 11:12:56;;;;;;;3.57;1.83;;;16.10;50.70;15.70;97576.00;;;;5114470;28;20705;-74
2022/04/25 11:15:41;;;;;;;2.27;2.07;;;16.10;51.10;15.70;97577.00;;;;5114593;28;20276;-74
2022/04/25 11:18:30;;;;;;;2.93;2.43;;;16.10;50.00;15.70;97589.00;;;;5114602;28;20267;-73
2022/04/25 11:21:04;;;;;;;2.30;2.20;;;16.10;52.10;15.70;97586.00;;;;5114447;28;20237;-73
2022/04/25 11:23:33;;;;;;;1.10;1.10;;;16.00;54.30;15.50;97585.00;;;;5096413;28;20218;-75
2022/04/25 11:26:00;;;;;;;1.90;1.47;;;15.90;53.30;15.50;97594.00;;;;5114124;28;20308;-73
2022/04/25 11:28:28;;;;;;;1.53;1.43;;;15.90;55.10;15.40;97589.00;;;;5114243;28;20202;-74
2022/04/25 11:31:21;;;;;;;2.23;2.03;;;15.90;52.80;15.40;97596.00;;;;5114145;28;20573;-75
2022/04/25 11:33:52;;;;;;;2.20;2.10;;;15.80;52.80;15.40;97602.00;;;;5114350;28;20208;-73
2022/04/25 11:36:21;;;;;;;2.33;2.13;;;15.70;54.00;15.30;97603.00;;;;5095944;28;20778;-74
2022/04/25 11:41:37;;;;;;;1.43;1.43;;;15.50;52.30;15.00;97602.00;;;;5113633;28;20205;-74
2022/04/25 11:44:06;;;;;;;2.43;2.23;;;15.40;54.90;14.70;97611.00;;;;5114758;28;20186;-73
2022/04/25 11:46:35;;;;;;;2.13;1.80;;;15.20;53.20;14.80;97608.00;;;;5117937;28;20522;-73
2022/04/25 11:49:06;;;;;;;6.10;4.17;;;15.30;54.00;14.50;97616.00;;;;5117557;28;20222;-73